createdAt,value
2018-06-22T00:00:28.218Z,17.50
2018-06-22T00:07:50.945Z,17.50
2018-06-22T00:10:18.484Z,17.50
2018-06-22T00:12:46.046Z,17.40
2018-06-22T00:15:13.583Z,17.40
2018-06-22T00:17:41.308Z,17.40
2018-06-22T00:20:08.847Z,17.40
2018-06-22T00:22:36.391Z,17.40
2018-06-22T00:25:03.948Z,17.40
2018-06-22T00:27:31.509Z,17.30
2018-06-22T00:29:59.023Z,17.30
2018-06-22T00:32:26.559Z,17.30
2018-06-22T00:34:54.078Z,17.20
2018-06-22T00:37:21.633Z,17.20
2018-06-22T00:39:49.217Z,17.10
2018-06-22T00:42:16.761Z,17.10
2018-06-22T00:44:44.297Z,17.00
2018-06-22T00:47:11.820Z,16.90
2018-06-22T00:49:39.899Z,16.90
2018-06-22T00:52:07.457Z,16.90
2018-06-22T00:54:35.012Z,16.90
2018-06-22T00:57:02.562Z,16.80
2018-06-22T00:59:30.125Z,16.80
2018-06-22T01:01:57.657Z,16.80
2018-06-22T01:04:25.183Z,16.70
2018-06-22T01:06:52.686Z,16.70
2018-06-22T01:09:20.261Z,16.70
2018-06-22T01:11:50.228Z,16.60
2018-06-22T01:14:17.781Z,16.60
2018-06-22T01:16:45.350Z,16.60
2018-06-22T01:19:12.866Z,16.60
2018-06-22T01:21:40.906Z,16.50
2018-06-22T01:24:08.439Z,16.50
2018-06-22T01:26:35.971Z,16.50
2018-06-22T01:29:09.187Z,16.40
2018-06-22T01:31:36.706Z,16.30
2018-06-22T01:34:04.209Z,16.20
2018-06-22T01:36:31.739Z,16.20
2018-06-22T01:38:59.275Z,16.10
2018-06-22T01:41:26.941Z,16.00
2018-06-22T01:43:54.518Z,16.00
2018-06-22T01:46:22.134Z,15.90
2018-06-22T01:48:49.836Z,15.80
2018-06-22T01:51:17.518Z,15.70
2018-06-22T01:53:45.136Z,15.70
2018-06-22T01:56:12.639Z,15.60
2018-06-22T01:58:40.175Z,15.60
2018-06-22T02:01:07.698Z,15.50
2018-06-22T02:03:35.348Z,15.40
2018-06-22T02:06:02.876Z,15.40
2018-06-22T02:08:30.402Z,15.30
2018-06-22T02:10:57.978Z,15.30
2018-06-22T02:13:25.510Z,15.30
2018-06-22T02:15:53.050Z,15.30
2018-06-22T02:18:20.616Z,15.20
2018-06-22T02:20:48.192Z,15.10
2018-06-22T02:23:19.743Z,15.10
2018-06-22T02:25:47.350Z,15.00
2018-06-22T02:30:42.371Z,14.90
2018-06-22T02:33:09.898Z,14.80
2018-06-22T02:35:37.437Z,14.70
2018-06-22T02:38:05.065Z,14.70
2018-06-22T02:40:32.581Z,14.60
2018-06-22T02:43:00.133Z,14.50
2018-06-22T02:45:27.654Z,14.50
2018-06-22T02:47:55.182Z,14.50
2018-06-22T02:57:45.174Z,14.50
2018-06-22T03:00:12.732Z,14.50
2018-06-22T03:02:40.257Z,14.50
2018-06-22T03:05:07.798Z,14.50
2018-06-22T03:07:35.357Z,14.40
2018-06-22T03:12:30.747Z,14.20
2018-06-22T03:14:58.292Z,14.10
2018-06-22T03:17:25.799Z,14.00
2018-06-22T03:19:53.335Z,13.90
2018-06-22T03:22:20.872Z,13.80
2018-06-22T03:24:48.390Z,13.70
2018-06-22T03:27:15.895Z,13.60
2018-06-22T03:29:43.466Z,13.60
2018-06-22T03:32:11.044Z,13.50
2018-06-22T03:34:38.541Z,13.40
2018-06-22T03:37:06.104Z,13.30
2018-06-22T03:39:33.777Z,13.30
2018-06-22T03:42:01.308Z,13.30
2018-06-22T03:44:28.828Z,13.20
2018-06-22T03:46:56.352Z,13.30
2018-06-22T03:49:23.864Z,13.30
2018-06-22T03:51:51.362Z,13.40
2018-06-22T03:54:18.910Z,13.30
2018-06-22T03:56:46.520Z,13.40
2018-06-22T03:59:14.040Z,13.40
2018-06-22T04:01:41.636Z,13.40
2018-06-22T04:04:09.186Z,13.50
2018-06-22T04:06:36.745Z,13.50
2018-06-22T04:09:05.640Z,13.60
2018-06-22T04:11:33.232Z,13.60
2018-06-22T04:14:00.746Z,13.60
2018-06-22T04:16:28.257Z,13.50
2018-06-22T04:18:55.805Z,13.50
2018-06-22T04:21:23.327Z,13.50
2018-06-22T04:23:50.832Z,13.50
2018-06-22T04:26:18.381Z,13.50
2018-06-22T04:28:45.907Z,13.50
2018-06-22T04:31:13.439Z,13.50
2018-06-22T04:33:40.993Z,13.60
2018-06-22T04:36:08.515Z,13.60
2018-06-22T04:38:36.137Z,13.50
2018-06-22T04:41:03.961Z,13.50
2018-06-22T04:43:31.543Z,13.60
2018-06-22T04:45:59.111Z,13.70
2018-06-22T04:48:26.639Z,13.70
2018-06-22T04:50:54.172Z,13.80
2018-06-22T04:53:21.696Z,13.70
2018-06-22T04:55:49.279Z,13.60
2018-06-22T04:58:16.836Z,13.60
2018-06-22T05:00:44.365Z,13.50
2018-06-22T05:03:11.901Z,13.50
2018-06-22T05:05:39.459Z,13.50
2018-06-22T05:08:06.957Z,13.50
2018-06-22T05:10:34.502Z,13.50
2018-06-22T05:13:02.167Z,13.50
2018-06-22T05:15:29.729Z,13.60
2018-06-22T05:17:57.260Z,13.70
2018-06-22T05:20:24.817Z,13.80
2018-06-22T05:22:52.367Z,13.90
2018-06-22T05:25:19.919Z,14.00
2018-06-22T05:27:47.476Z,14.00
2018-06-22T05:30:15.213Z,14.10
2018-06-22T05:32:42.764Z,14.10
2018-06-22T05:35:10.345Z,14.30
2018-06-22T05:37:37.926Z,14.30
2018-06-22T05:40:05.552Z,14.30
2018-06-22T05:42:33.060Z,14.30
2018-06-22T05:45:00.610Z,14.30
2018-06-22T05:47:28.118Z,14.30
2018-06-22T05:49:55.658Z,14.30
2018-06-22T05:52:23.252Z,14.30
2018-06-22T05:54:50.800Z,14.30
2018-06-22T05:57:18.412Z,14.30
2018-06-22T05:59:46.022Z,14.30
2018-06-22T06:02:13.570Z,14.30
2018-06-22T06:04:41.124Z,14.30
2018-06-22T06:14:31.262Z,14.70
2018-06-22T06:16:58.834Z,14.60
2018-06-22T06:19:26.381Z,14.60
2018-06-22T06:21:53.937Z,14.60
2018-06-22T06:24:21.493Z,14.60
2018-06-22T06:26:49.033Z,14.70
2018-06-22T06:29:16.592Z,14.80
2018-06-22T06:31:44.185Z,14.80
2018-06-22T06:34:11.728Z,14.80
2018-06-22T06:36:39.250Z,14.80
2018-06-22T06:39:07.189Z,14.80
2018-06-22T06:41:34.764Z,14.90
2018-06-22T06:44:02.348Z,14.80
2018-06-22T06:46:29.926Z,14.70
2018-06-22T06:48:57.491Z,14.70
2018-06-22T06:51:25.072Z,14.60
2018-06-22T06:53:52.652Z,14.70
2018-06-22T06:56:20.238Z,14.80
2018-06-22T06:58:47.774Z,15.00
2018-06-22T07:01:15.380Z,15.00
2018-06-22T07:03:42.968Z,14.90
2018-06-22T07:06:10.518Z,14.90
2018-06-22T07:08:38.211Z,14.80
2018-06-22T07:11:05.825Z,14.80
2018-06-22T07:13:33.366Z,14.80
2018-06-22T07:16:00.916Z,14.80
2018-06-22T07:18:28.476Z,14.90
2018-06-22T07:20:56.033Z,14.90
2018-06-22T07:23:23.634Z,14.90
2018-06-22T07:25:51.135Z,15.00
2018-06-22T07:28:18.653Z,15.20
2018-06-22T07:30:46.260Z,15.30
2018-06-22T07:33:13.802Z,15.30
2018-06-22T07:35:41.377Z,15.20
2018-06-22T07:38:08.903Z,15.10
2018-06-22T07:40:36.421Z,15.10
2018-06-22T07:43:03.993Z,15.10
2018-06-22T07:45:31.559Z,15.20
2018-06-22T07:47:59.113Z,15.30
2018-06-22T07:50:26.655Z,15.40
2018-06-22T07:52:54.173Z,15.40
2018-06-22T07:55:21.773Z,15.60
2018-06-22T07:57:49.344Z,15.60
2018-06-22T08:00:16.841Z,15.60
2018-06-22T08:02:44.395Z,15.60
2018-06-22T08:05:11.911Z,15.50
2018-06-22T08:07:39.438Z,15.50
2018-06-22T08:10:07.109Z,15.60
2018-06-22T08:12:34.634Z,15.70
2018-06-22T08:15:02.179Z,15.90
2018-06-22T08:17:29.705Z,16.10
2018-06-22T08:19:57.231Z,16.30
2018-06-22T08:22:24.810Z,16.30
2018-06-22T08:24:52.340Z,16.50
2018-06-22T08:27:19.865Z,16.60
2018-06-22T08:29:47.423Z,16.70
2018-06-22T08:32:15.015Z,16.80
2018-06-22T08:34:42.609Z,16.80
2018-06-22T08:37:10.127Z,16.60
2018-06-22T08:39:37.664Z,16.60
2018-06-22T08:42:05.365Z,16.70
2018-06-22T08:44:33.028Z,16.80
2018-06-22T08:47:00.598Z,16.80
2018-06-22T08:49:28.169Z,16.70
2018-06-22T08:51:55.980Z,16.50
2018-06-22T08:54:23.492Z,16.50
2018-06-22T08:56:51.037Z,16.50
2018-06-22T08:59:18.573Z,16.50
2018-06-22T09:01:46.075Z,16.30
2018-06-22T09:04:13.665Z,16.20
2018-06-22T09:06:41.194Z,16.10
2018-06-22T09:09:08.720Z,16.20
2018-06-22T09:11:36.271Z,16.40
2018-06-22T09:14:03.798Z,16.60
2018-06-22T09:16:31.430Z,16.60
2018-06-22T09:18:58.984Z,16.50
2018-06-22T09:21:26.493Z,16.60
2018-06-22T09:23:54.224Z,16.70
2018-06-22T09:26:21.783Z,17.10
2018-06-22T09:28:49.361Z,17.30
2018-06-22T09:31:16.944Z,17.20
2018-06-22T09:33:44.597Z,17.00
2018-06-22T09:36:12.249Z,16.90
2018-06-22T09:38:39.785Z,17.00
2018-06-22T09:41:07.352Z,17.10
2018-06-22T09:43:34.891Z,17.20
2018-06-22T09:46:02.493Z,17.30
2018-06-22T09:48:30.070Z,17.20
2018-06-22T09:50:57.661Z,17.10
2018-06-22T09:53:25.299Z,17.00
2018-06-22T09:55:52.849Z,16.80
2018-06-22T09:58:20.426Z,16.80
2018-06-22T10:00:49.935Z,17.10
2018-06-22T10:03:17.993Z,17.60
2018-06-22T10:05:45.604Z,18.00
2018-06-22T10:08:13.106Z,18.10
2018-06-22T10:10:40.755Z,17.80
2018-06-22T10:13:08.276Z,17.60
2018-06-22T10:15:35.807Z,17.60
2018-06-22T10:18:03.369Z,17.60
2018-06-22T10:20:31.409Z,18.00
2018-06-22T10:22:58.958Z,18.40
2018-06-22T10:25:26.584Z,18.80
2018-06-22T10:27:54.230Z,19.20
2018-06-22T10:30:21.910Z,19.60
2018-06-22T10:32:49.511Z,19.60
2018-06-22T10:35:17.076Z,19.20
2018-06-22T10:37:44.667Z,19.10
2018-06-22T10:40:12.274Z,19.30
2018-06-22T10:42:39.818Z,19.80
2018-06-22T10:45:07.446Z,20.20
2018-06-22T10:47:35.246Z,20.50
2018-06-22T10:50:02.896Z,20.90
2018-06-22T10:52:30.513Z,21.10
2018-06-22T10:54:58.100Z,21.00
2018-06-22T10:57:25.648Z,20.70
2018-06-22T10:59:53.271Z,20.40
2018-06-22T11:02:20.749Z,20.00
2018-06-22T11:04:48.332Z,19.70
2018-06-22T11:07:15.898Z,19.50
2018-06-22T11:09:43.506Z,19.60
2018-06-22T11:12:11.069Z,19.80
2018-06-22T11:14:38.627Z,19.60
2018-06-22T11:17:06.188Z,19.30
2018-06-22T11:19:33.754Z,19.00
2018-06-22T11:22:01.362Z,18.70
2018-06-22T11:24:28.947Z,18.60
2018-06-22T11:26:56.496Z,18.50
2018-06-22T11:29:24.079Z,18.40
2018-06-22T11:31:51.658Z,18.40
2018-06-22T11:34:19.217Z,18.30
2018-06-22T11:36:46.804Z,18.40
2018-06-22T11:39:14.368Z,18.40
2018-06-22T11:41:41.953Z,18.30
2018-06-22T11:44:09.842Z,18.20
2018-06-22T11:46:37.622Z,18.10
2018-06-22T11:49:05.222Z,18.20
2018-06-22T11:51:32.794Z,18.40
2018-06-22T11:54:00.680Z,18.60
2018-06-22T11:56:28.257Z,18.50
2018-06-22T11:58:55.822Z,18.50
2018-06-22T12:01:23.360Z,18.50
2018-06-22T12:03:50.940Z,18.40
2018-06-22T12:06:18.567Z,18.40
2018-06-22T12:08:46.086Z,18.60
2018-06-22T12:11:13.733Z,19.40
2018-06-22T12:13:41.318Z,20.40
2018-06-22T12:16:09.320Z,20.80
2018-06-22T12:18:36.881Z,21.30
2018-06-22T12:21:04.447Z,22.00
2018-06-22T12:23:31.995Z,22.00
2018-06-22T12:25:59.589Z,21.20
2018-06-22T12:28:27.177Z,20.40
2018-06-22T12:30:54.771Z,19.60
2018-06-22T12:33:22.313Z,18.90
2018-06-22T12:35:49.894Z,18.40
2018-06-22T12:38:17.475Z,18.10
2018-06-22T12:40:45.091Z,17.80
2018-06-22T12:43:12.687Z,17.50
2018-06-22T12:45:40.298Z,17.30
2018-06-22T12:48:07.888Z,17.20
2018-06-22T12:50:35.510Z,17.00
2018-06-22T12:53:03.105Z,16.90
2018-06-22T12:55:30.703Z,16.80
2018-06-22T12:57:58.273Z,16.80
2018-06-22T13:00:25.819Z,16.90
2018-06-22T13:02:53.367Z,16.80
2018-06-22T13:05:20.960Z,16.80
2018-06-22T13:07:48.565Z,16.70
2018-06-22T13:10:16.209Z,16.70
2018-06-22T13:12:43.830Z,16.60
2018-06-22T13:15:11.363Z,16.60
2018-06-22T13:17:39.199Z,16.60
2018-06-22T13:20:06.771Z,16.60
2018-06-22T13:22:34.318Z,16.80
2018-06-22T13:25:01.925Z,16.90
2018-06-22T13:27:29.590Z,16.90
2018-06-22T13:29:57.209Z,16.90
2018-06-22T13:32:24.785Z,16.90
2018-06-22T13:34:52.303Z,16.90
2018-06-22T13:37:19.932Z,16.90
2018-06-22T13:39:47.487Z,16.90
2018-06-22T13:42:15.089Z,16.90
2018-06-22T13:44:42.703Z,16.90
2018-06-22T13:47:10.282Z,16.80
2018-06-22T13:49:37.870Z,16.80
2018-06-22T13:52:05.470Z,16.90
2018-06-22T13:54:32.990Z,17.00
2018-06-22T13:57:00.630Z,17.60
2018-06-22T13:59:28.180Z,18.70
2018-06-22T14:01:55.817Z,19.40
2018-06-22T14:04:28.929Z,19.70
2018-06-22T14:06:56.759Z,19.80
2018-06-22T14:09:24.400Z,20.20
2018-06-22T14:11:51.925Z,20.70
2018-06-22T14:14:19.519Z,20.50
2018-06-22T14:16:47.050Z,20.00
2018-06-22T14:19:14.603Z,20.00
2018-06-22T14:21:42.176Z,19.90
2018-06-22T14:24:09.702Z,19.90
2018-06-22T14:26:37.311Z,20.20
2018-06-22T14:29:05.097Z,20.90
2018-06-22T14:31:32.701Z,21.70
2018-06-22T14:34:00.348Z,22.20
2018-06-22T14:36:28.052Z,22.00
2018-06-22T14:38:55.963Z,21.30
2018-06-22T14:41:23.719Z,20.40
2018-06-22T14:43:51.346Z,19.80
2018-06-22T14:46:18.960Z,19.30
2018-06-22T14:51:20.999Z,19.40
2018-06-22T14:53:54.110Z,19.40
2018-06-22T14:56:27.285Z,19.10
2018-06-22T14:59:00.556Z,18.70
2018-06-22T15:01:33.749Z,18.60
2018-06-22T15:04:06.998Z,19.30
2018-06-22T15:06:40.260Z,19.90
2018-06-22T15:09:08.823Z,19.70
2018-06-22T15:11:36.597Z,19.60
2018-06-22T15:14:04.254Z,19.70
2018-06-22T15:16:31.833Z,19.80
2018-06-22T15:18:59.415Z,20.20
2018-06-22T15:21:27.040Z,20.10
2018-06-22T15:23:54.613Z,19.90
2018-06-22T15:26:22.226Z,20.20
2018-06-22T15:28:49.811Z,20.50
2018-06-22T15:31:17.479Z,21.00
2018-06-22T15:33:50.654Z,21.50
2018-06-22T15:36:23.882Z,21.40
2018-06-22T15:38:57.069Z,21.60
2018-06-22T15:41:30.120Z,21.50
2018-06-22T15:44:03.400Z,20.90
2018-06-22T15:46:36.781Z,20.40
2018-06-22T15:49:10.042Z,19.90
2018-06-22T15:51:43.389Z,19.40
2018-06-22T15:54:16.674Z,19.60
2018-06-22T15:56:44.292Z,19.60
2018-06-22T15:59:11.845Z,19.50
2018-06-22T16:01:39.380Z,19.30
2018-06-22T16:04:10.245Z,19.20
2018-06-22T16:06:37.914Z,19.10
2018-06-22T16:09:07.172Z,19.20
2018-06-22T16:11:35.176Z,19.60
2018-06-22T16:14:08.446Z,19.50
2018-06-22T16:16:41.728Z,19.00
2018-06-22T16:19:14.978Z,18.60
2018-06-22T16:21:48.197Z,18.70
2018-06-22T16:24:21.439Z,18.70
2018-06-22T16:26:54.702Z,18.40
2018-06-22T16:29:22.256Z,18.00
2018-06-22T16:31:49.816Z,17.70
2018-06-22T16:34:17.401Z,17.60
2018-06-22T16:36:44.993Z,18.20
2018-06-22T16:39:13.647Z,18.90
2018-06-22T16:41:41.232Z,19.60
2018-06-22T16:44:09.449Z,19.90
2018-06-22T16:46:37.084Z,19.60
2018-06-22T16:49:04.939Z,19.30
2018-06-22T16:51:32.859Z,19.20
2018-06-22T16:54:00.401Z,19.40
2018-06-22T16:56:28.113Z,19.70
2018-06-22T16:59:00.247Z,19.90
2018-06-22T17:01:28.119Z,19.80
2018-06-22T17:03:55.713Z,19.80
2018-06-22T17:06:23.541Z,19.80
2018-06-22T17:08:56.635Z,19.70
2018-06-22T17:11:29.793Z,19.30
2018-06-22T17:14:03.037Z,18.90
2018-06-22T17:16:36.133Z,18.60
2018-06-22T17:19:03.819Z,18.40
2018-06-22T17:21:31.417Z,18.50
2018-06-22T17:23:59.007Z,18.70
2018-06-22T17:26:26.641Z,19.00
2018-06-22T17:28:54.272Z,19.00
2018-06-22T17:31:21.895Z,18.80
2018-06-22T17:33:49.518Z,18.40
2018-06-22T17:36:17.111Z,18.20
2018-06-22T17:38:44.700Z,18.20
2018-06-22T17:41:12.274Z,18.20
2018-06-22T17:43:39.899Z,18.20
2018-06-22T17:46:07.588Z,18.20
2018-06-22T17:48:35.182Z,18.10
2018-06-22T17:51:02.802Z,18.10
2018-06-22T17:53:30.405Z,18.00
2018-06-22T17:55:58.017Z,17.90
2018-06-22T17:58:25.634Z,17.60
2018-06-22T18:00:58.775Z,17.10
2018-06-22T18:06:05.044Z,16.50
2018-06-22T18:08:38.253Z,16.30
2018-06-22T18:11:11.437Z,16.30
2018-06-22T18:13:39.132Z,16.30
2018-06-22T18:16:06.784Z,16.40
2018-06-22T18:18:34.422Z,16.30
2018-06-22T18:21:02.092Z,16.30
2018-06-22T18:23:29.717Z,16.30
2018-06-22T18:25:57.388Z,16.20
2018-06-22T18:28:25.008Z,16.10
2018-06-22T18:30:52.634Z,16.00
2018-06-22T18:33:20.278Z,16.00
2018-06-22T18:35:47.953Z,16.00
2018-06-22T18:38:15.722Z,16.00
2018-06-22T18:40:43.418Z,15.90
2018-06-22T18:43:16.694Z,15.80
2018-06-22T18:45:44.364Z,15.70
2018-06-22T18:48:12.068Z,15.70
2018-06-22T18:50:39.737Z,15.60
2018-06-22T18:53:13.048Z,15.50
2018-06-22T18:55:46.361Z,15.40
2018-06-22T18:58:20.216Z,15.30
2018-06-22T19:00:53.584Z,15.20
2018-06-22T19:03:26.722Z,15.10
2018-06-22T19:05:54.418Z,15.00
2018-06-22T19:08:22.124Z,15.00
2018-06-22T19:10:50.019Z,14.90
2018-06-22T19:13:17.779Z,14.80
2018-06-22T19:15:45.609Z,14.70
2018-06-22T19:18:13.555Z,14.60
2018-06-22T19:20:41.213Z,14.60
2018-06-22T19:23:08.863Z,14.50
2018-06-22T19:25:36.519Z,14.50
2018-06-22T19:28:04.553Z,14.40
2018-06-22T19:30:32.235Z,14.30
2018-06-22T19:32:59.950Z,14.30
2018-06-22T19:35:28.392Z,14.20
2018-06-22T19:37:56.086Z,14.20
2018-06-22T19:40:24.333Z,14.10
2018-06-22T19:42:52.335Z,14.00
2018-06-22T19:45:25.629Z,13.90
2018-06-22T19:47:58.911Z,13.80
2018-06-22T19:50:32.216Z,13.80
2018-06-22T19:53:05.585Z,13.70
2018-06-22T19:55:33.367Z,13.60
2018-06-22T19:58:01.114Z,13.60
2018-06-22T20:00:28.810Z,13.60
2018-06-22T20:02:56.486Z,13.60
2018-06-22T20:05:24.106Z,13.50
2018-06-22T20:07:51.820Z,13.50
2018-06-22T20:10:19.552Z,13.50
2018-06-22T20:12:47.213Z,13.50
2018-06-22T20:15:19.471Z,13.50
2018-06-22T20:17:47.147Z,13.50
2018-06-22T20:20:14.829Z,13.50
2018-06-22T20:22:42.560Z,13.50
2018-06-22T20:25:15.742Z,13.60
2018-06-22T20:27:43.391Z,13.50
2018-06-22T20:30:11.047Z,13.50
2018-06-22T20:32:38.723Z,13.40
2018-06-22T20:35:12.035Z,13.30
2018-06-22T20:37:45.225Z,13.20
2018-06-22T20:40:18.533Z,13.10
2018-06-22T20:42:51.783Z,13.00
2018-06-22T20:45:25.094Z,13.00
2018-06-22T20:50:31.713Z,12.90
2018-06-22T20:57:54.621Z,12.60
2018-06-22T21:00:22.320Z,12.50
2018-06-22T21:02:49.914Z,12.40
2018-06-22T21:05:17.553Z,12.30
2018-06-22T21:07:45.188Z,12.20
2018-06-22T21:10:12.849Z,12.20
2018-06-22T21:12:40.887Z,12.20
2018-06-22T21:15:08.197Z,12.20
2018-06-22T21:17:35.827Z,12.20
2018-06-22T21:20:03.521Z,12.10
2018-06-22T21:22:31.173Z,12.10
2018-06-22T21:27:31.901Z,12.00
2018-06-22T21:30:05.118Z,12.00
2018-06-22T21:32:38.265Z,11.90
2018-06-22T21:35:11.470Z,11.90
2018-06-22T21:37:44.633Z,11.90
2018-06-22T21:40:12.194Z,11.90
2018-06-22T21:42:39.725Z,11.90
2018-06-22T21:45:07.289Z,11.90
2018-06-22T21:47:34.844Z,11.80
2018-06-22T21:50:02.440Z,11.80
2018-06-22T21:52:30.006Z,11.80
2018-06-22T21:54:57.569Z,11.70
2018-06-22T21:57:25.242Z,11.70
2018-06-22T21:59:52.797Z,11.60
2018-06-22T22:02:20.445Z,11.60
2018-06-22T22:04:48.043Z,11.50
2018-06-22T22:07:15.614Z,11.50
2018-06-22T22:09:43.613Z,11.50
2018-06-22T22:12:11.335Z,11.40
2018-06-22T22:14:39.469Z,11.30
2018-06-22T22:17:07.199Z,11.30
2018-06-22T22:19:34.994Z,11.30
2018-06-22T22:22:02.612Z,11.20
2018-06-22T22:24:30.253Z,11.20
2018-06-22T22:26:57.854Z,11.20
2018-06-22T22:29:25.428Z,11.30
2018-06-22T22:31:53.088Z,11.30
2018-06-22T22:34:20.666Z,11.30
2018-06-22T22:36:48.201Z,11.20
2018-06-22T22:39:15.819Z,11.20
2018-06-22T22:41:43.421Z,11.20
2018-06-22T22:44:11.014Z,11.10
2018-06-22T22:46:38.905Z,11.10
2018-06-22T22:49:06.459Z,11.10
2018-06-22T22:51:34.050Z,11.10
2018-06-22T22:54:01.651Z,11.10
2018-06-22T22:56:29.256Z,11.10
2018-06-22T22:58:57.090Z,11.00
2018-06-22T23:01:24.718Z,11.00
2018-06-22T23:03:52.381Z,11.00
2018-06-22T23:06:19.964Z,10.90
2018-06-22T23:08:47.559Z,10.90
2018-06-22T23:11:15.281Z,10.90
2018-06-22T23:13:42.902Z,10.90
2018-06-22T23:16:10.439Z,10.80
2018-06-22T23:18:37.975Z,10.80
2018-06-22T23:21:05.585Z,10.80
2018-06-22T23:23:37.581Z,10.80
2018-06-22T23:26:05.589Z,10.80
2018-06-22T23:28:34.079Z,10.80
2018-06-22T23:31:02.770Z,10.80
2018-06-22T23:33:30.793Z,10.70
2018-06-22T23:35:59.027Z,10.80
2018-06-22T23:38:26.646Z,10.70
2018-06-22T23:40:54.389Z,10.70
2018-06-22T23:43:21.939Z,10.70
2018-06-22T23:45:49.501Z,10.70
2018-06-22T23:48:17.049Z,10.60
2018-06-22T23:50:44.727Z,10.60
2018-06-22T23:53:12.297Z,10.50
2018-06-22T23:55:39.850Z,10.50
2018-06-22T23:58:08.043Z,10.50
